De Witt, Arkansas
Current Conditions -  °F | °C
As of 7:35 PM on Monday 24 Nov 2014 (Local Time) from KSGT Reporting Station
Clear Clear  
Wind Chill: 43°   Ceiling: Unl
Heat Index: 46°   Visibility: 10mi
Dew Point: 34°   Wind: 7mph
Humidity: 62%   Direction: 210°SSW
Pressure: 30.04"   Gusts: NA
Location:  34.29°N, 91.34°W
Report Text: KSGT 250135Z AUTO 21006KT 10SM CLR 08/01 A3004 RMK AO1
Loading
Personal Weather Stations






























Interactive Weather Map New forecast layout! Learn more

10-Day Weather Forecast

Advertisements
Track Severe Weather on mobile